sensor_id;sensor_type;location;lat;lon;timestamp;temperature;humidity
23102;DHT22;11720;51.214;22.574;2023-07-31T00:00:27;18.10;99.90
23102;DHT22;11720;51.214;22.574;2023-07-31T00:02:54;18.10;99.90
23102;DHT22;11720;51.214;22.574;2023-07-31T00:05:20;18.00;99.90
23102;DHT22;11720;51.214;22.574;2023-07-31T00:07:46;18.10;99.90
23102;DHT22;11720;51.214;22.574;2023-07-31T00:10:12;18.00;99.90
23102;DHT22;11720;51.214;22.574;2023-07-31T00:12:39;18.00;99.90
23102;DHT22;11720;51.214;22.574;2023-07-31T00:15:06;18.10;99.90
23102;DHT22;11720;51.214;22.574;2023-07-31T00:17:32;18.10;99.90
23102;DHT22;11720;51.214;22.574;2023-07-31T00:19:57;18.10;99.90
23102;DHT22;11720;51.214;22.574;2023-07-31T00:22:23;18.10;99.90
23102;DHT22;11720;51.214;22.574;2023-07-31T00:24:49;18.10;99.90
23102;DHT22;11720;51.214;22.574;2023-07-31T00:27:14;18.10;99.90
23102;DHT22;11720;51.214;22.574;2023-07-31T00:29:40;18.10;99.90
23102;DHT22;11720;51.214;22.574;2023-07-31T00:32:06;18.10;99.90
23102;DHT22;11720;51.214;22.574;2023-07-31T00:34:32;18.00;99.90
23102;DHT22;11720;51.214;22.574;2023-07-31T00:36:58;18.00;99.90
23102;DHT22;11720;51.214;22.574;2023-07-31T00:39:23;18.00;99.90
23102;DHT22;11720;51.214;22.574;2023-07-31T00:41:49;18.00;99.90
23102;DHT22;11720;51.214;22.574;2023-07-31T00:44:15;18.10;99.90
23102;DHT22;11720;51.214;22.574;2023-07-31T00:46:40;18.10;99.90
23102;DHT22;11720;51.214;22.574;2023-07-31T00:49:06;18.10;99.90
23102;DHT22;11720;51.214;22.574;2023-07-31T00:51:33;18.10;99.90
23102;DHT22;11720;51.214;22.574;2023-07-31T00:53:58;18.00;99.90
23102;DHT22;11720;51.214;22.574;2023-07-31T00:56:25;18.10;99.90
23102;DHT22;11720;51.214;22.574;2023-07-31T00:58:51;18.10;99.90
23102;DHT22;11720;51.214;22.574;2023-07-31T01:01:16;18.00;99.90
23102;DHT22;11720;51.214;22.574;2023-07-31T01:03:42;18.00;99.90
23102;DHT22;11720;51.214;22.574;2023-07-31T01:06:14;17.90;99.90
23102;DHT22;11720;51.214;22.574;2023-07-31T01:09:03;17.90;99.90
23102;DHT22;11720;51.214;22.574;2023-07-31T01:11:48;17.90;99.90
23102;DHT22;11720;51.214;22.574;2023-07-31T01:14:16;17.90;99.90
23102;DHT22;11720;51.214;22.574;2023-07-31T01:16:42;17.90;99.90
23102;DHT22;11720;51.214;22.574;2023-07-31T01:19:09;17.90;99.90
23102;DHT22;11720;51.214;22.574;2023-07-31T01:27:13;17.80;99.90
23102;DHT22;11720;51.214;22.574;2023-07-31T01:32:12;17.80;99.90
23102;DHT22;11720;51.214;22.574;2023-07-31T01:34:39;17.80;99.90
23102;DHT22;11720;51.214;22.574;2023-07-31T01:37:06;17.80;99.90
23102;DHT22;11720;51.214;22.574;2023-07-31T01:39:32;17.80;99.90
23102;DHT22;11720;51.214;22.574;2023-07-31T01:41:58;17.80;99.90
23102;DHT22;11720;51.214;22.574;2023-07-31T01:44:23;17.80;99.90
23102;DHT22;11720;51.214;22.574;2023-07-31T01:46:49;17.80;99.90
23102;DHT22;11720;51.214;22.574;2023-07-31T01:49:15;17.80;99.90
23102;DHT22;11720;51.214;22.574;2023-07-31T01:51:40;17.80;99.90
23102;DHT22;11720;51.214;22.574;2023-07-31T01:54:06;17.70;99.90
23102;DHT22;11720;51.214;22.574;2023-07-31T01:56:31;17.70;99.90
23102;DHT22;11720;51.214;22.574;2023-07-31T01:58:57;17.80;99.90
23102;DHT22;11720;51.214;22.574;2023-07-31T02:01:23;17.80;99.90
23102;DHT22;11720;51.214;22.574;2023-07-31T02:03:48;17.70;99.90
23102;DHT22;11720;51.214;22.574;2023-07-31T02:06:14;17.70;99.90
23102;DHT22;11720;51.214;22.574;2023-07-31T02:08:40;17.70;99.90
23102;DHT22;11720;51.214;22.574;2023-07-31T02:11:05;17.80;99.90
23102;DHT22;11720;51.214;22.574;2023-07-31T02:13:31;17.70;99.90
23102;DHT22;11720;51.214;22.574;2023-07-31T02:15:57;17.70;99.90
23102;DHT22;11720;51.214;22.574;2023-07-31T02:18:23;17.70;99.90
23102;DHT22;11720;51.214;22.574;2023-07-31T02:20:50;17.70;99.90
23102;DHT22;11720;51.214;22.574;2023-07-31T02:23:19;17.70;99.90
23102;DHT22;11720;51.214;22.574;2023-07-31T02:25:45;17.70;99.90
23102;DHT22;11720;51.214;22.574;2023-07-31T02:28:11;17.70;99.90
23102;DHT22;11720;51.214;22.574;2023-07-31T02:30:37;17.60;99.90
23102;DHT22;11720;51.214;22.574;2023-07-31T02:33:04;17.60;99.90
23102;DHT22;11720;51.214;22.574;2023-07-31T02:35:30;17.70;99.90
23102;DHT22;11720;51.214;22.574;2023-07-31T02:37:55;17.60;99.90
23102;DHT22;11720;51.214;22.574;2023-07-31T02:40:21;17.60;99.90
23102;DHT22;11720;51.214;22.574;2023-07-31T02:42:47;17.60;99.90
23102;DHT22;11720;51.214;22.574;2023-07-31T02:45:12;17.60;99.90
23102;DHT22;11720;51.214;22.574;2023-07-31T02:47:38;17.60;99.90
23102;DHT22;11720;51.214;22.574;2023-07-31T02:50:04;17.60;99.90
23102;DHT22;11720;51.214;22.574;2023-07-31T02:52:30;17.60;99.90
23102;DHT22;11720;51.214;22.574;2023-07-31T02:54:57;17.70;99.90
23102;DHT22;11720;51.214;22.574;2023-07-31T02:57:22;17.70;99.90
23102;DHT22;11720;51.214;22.574;2023-07-31T02:59:48;17.70;99.90
23102;DHT22;11720;51.214;22.574;2023-07-31T03:02:15;17.60;99.90
23102;DHT22;11720;51.214;22.574;2023-07-31T03:04:41;17.60;99.90
23102;DHT22;11720;51.214;22.574;2023-07-31T03:07:06;17.60;99.90
23102;DHT22;11720;51.214;22.574;2023-07-31T03:09:32;17.60;99.90
23102;DHT22;11720;51.214;22.574;2023-07-31T03:11:58;17.60;99.90
23102;DHT22;11720;51.214;22.574;2023-07-31T03:14:23;17.60;99.90
23102;DHT22;11720;51.214;22.574;2023-07-31T03:16:51;17.60;99.90
23102;DHT22;11720;51.214;22.574;2023-07-31T03:19:17;17.70;99.90
23102;DHT22;11720;51.214;22.574;2023-07-31T03:21:43;17.70;99.90
23102;DHT22;11720;51.214;22.574;2023-07-31T03:24:08;17.60;99.90
23102;DHT22;11720;51.214;22.574;2023-07-31T03:26:34;17.60;99.90
23102;DHT22;11720;51.214;22.574;2023-07-31T03:29:00;17.60;99.90
23102;DHT22;11720;51.214;22.574;2023-07-31T03:31:26;17.60;99.90
23102;DHT22;11720;51.214;22.574;2023-07-31T03:33:52;17.60;99.90
23102;DHT22;11720;51.214;22.574;2023-07-31T03:36:17;17.60;99.90
23102;DHT22;11720;51.214;22.574;2023-07-31T03:38:43;17.70;99.90
23102;DHT22;11720;51.214;22.574;2023-07-31T03:41:09;17.70;99.90
23102;DHT22;11720;51.214;22.574;2023-07-31T03:43:35;17.70;99.90
23102;DHT22;11720;51.214;22.574;2023-07-31T03:46:01;17.70;99.90
23102;DHT22;11720;51.214;22.574;2023-07-31T03:48:28;17.70;99.90
23102;DHT22;11720;51.214;22.574;2023-07-31T03:50:53;17.70;99.90
23102;DHT22;11720;51.214;22.574;2023-07-31T03:53:19;17.70;99.90
23102;DHT22;11720;51.214;22.574;2023-07-31T03:55:45;17.70;99.90
23102;DHT22;11720;51.214;22.574;2023-07-31T04:00:37;17.60;99.90
23102;DHT22;11720;51.214;22.574;2023-07-31T04:03:02;17.70;99.90
23102;DHT22;11720;51.214;22.574;2023-07-31T04:05:31;17.70;99.90
23102;DHT22;11720;51.214;22.574;2023-07-31T04:07:56;17.70;99.90
23102;DHT22;11720;51.214;22.574;2023-07-31T04:10:22;17.70;99.90
23102;DHT22;11720;51.214;22.574;2023-07-31T04:12:48;17.70;99.90
23102;DHT22;11720;51.214;22.574;2023-07-31T04:15:14;17.70;99.90
23102;DHT22;11720;51.214;22.574;2023-07-31T04:17:39;17.70;99.90
23102;DHT22;11720;51.214;22.574;2023-07-31T04:20:05;17.70;99.90
23102;DHT22;11720;51.214;22.574;2023-07-31T04:22:31;17.70;99.90
23102;DHT22;11720;51.214;22.574;2023-07-31T04:24:57;17.70;99.90
23102;DHT22;11720;51.214;22.574;2023-07-31T04:27:22;17.70;99.90
23102;DHT22;11720;51.214;22.574;2023-07-31T04:29:48;17.70;99.90
23102;DHT22;11720;51.214;22.574;2023-07-31T04:32:14;17.70;99.90
23102;DHT22;11720;51.214;22.574;2023-07-31T04:34:42;17.70;99.90
23102;DHT22;11720;51.214;22.574;2023-07-31T04:37:08;17.70;99.90
23102;DHT22;11720;51.214;22.574;2023-07-31T04:42:00;17.70;99.90
23102;DHT22;11720;51.214;22.574;2023-07-31T04:46:51;17.70;99.90
23102;DHT22;11720;51.214;22.574;2023-07-31T04:49:17;17.70;99.90
23102;DHT22;11720;51.214;22.574;2023-07-31T04:51:43;17.80;99.90
23102;DHT22;11720;51.214;22.574;2023-07-31T04:54:09;17.80;99.90
23102;DHT22;11720;51.214;22.574;2023-07-31T04:59:01;17.90;99.90
23102;DHT22;11720;51.214;22.574;2023-07-31T05:01:26;17.90;99.90
23102;DHT22;11720;51.214;22.574;2023-07-31T05:03:52;17.90;99.90
23102;DHT22;11720;51.214;22.574;2023-07-31T05:06:18;18.00;99.90
23102;DHT22;11720;51.214;22.574;2023-07-31T05:08:43;18.00;99.90
23102;DHT22;11720;51.214;22.574;2023-07-31T05:13:35;18.10;99.90
23102;DHT22;11720;51.214;22.574;2023-07-31T05:16:01;18.30;99.90
23102;DHT22;11720;51.214;22.574;2023-07-31T05:18:26;18.50;99.90
23102;DHT22;11720;51.214;22.574;2023-07-31T05:20:52;18.60;99.90
23102;DHT22;11720;51.214;22.574;2023-07-31T05:25:44;19.00;99.90
23102;DHT22;11720;51.214;22.574;2023-07-31T05:28:09;19.10;99.90
23102;DHT22;11720;51.214;22.574;2023-07-31T05:30:35;19.20;99.90
23102;DHT22;11720;51.214;22.574;2023-07-31T05:33:01;20.20;99.90
23102;DHT22;11720;51.214;22.574;2023-07-31T05:35:26;19.40;99.90
23102;DHT22;11720;51.214;22.574;2023-07-31T05:40:18;19.50;99.90
23102;DHT22;11720;51.214;22.574;2023-07-31T05:45:10;19.60;99.90
23102;DHT22;11720;51.214;22.574;2023-07-31T05:47:35;19.60;99.90
23102;DHT22;11720;51.214;22.574;2023-07-31T05:52:27;19.50;99.90
23102;DHT22;11720;51.214;22.574;2023-07-31T05:54:54;19.50;99.90
23102;DHT22;11720;51.214;22.574;2023-07-31T05:57:20;19.50;99.90
23102;DHT22;11720;51.214;22.574;2023-07-31T05:59:46;19.50;99.90
23102;DHT22;11720;51.214;22.574;2023-07-31T06:02:12;19.50;99.90
23102;DHT22;11720;51.214;22.574;2023-07-31T06:04:38;20.60;99.90
23102;DHT22;11720;51.214;22.574;2023-07-31T06:09:30;19.60;99.90
23102;DHT22;11720;51.214;22.574;2023-07-31T06:14:22;19.60;99.90
23102;DHT22;11720;51.214;22.574;2023-07-31T06:19:14;19.70;99.90
23102;DHT22;11720;51.214;22.574;2023-07-31T06:21:40;19.60;99.90
23102;DHT22;11720;51.214;22.574;2023-07-31T06:26:34;19.70;99.90
23102;DHT22;11720;51.214;22.574;2023-07-31T06:31:25;19.80;99.90
23102;DHT22;11720;51.214;22.574;2023-07-31T06:33:54;19.80;99.90
23102;DHT22;11720;51.214;22.574;2023-07-31T06:43:38;19.90;99.90
23102;DHT22;11720;51.214;22.574;2023-07-31T06:46:07;20.20;99.90
23102;DHT22;11720;51.214;22.574;2023-07-31T06:51:00;20.20;99.90
23102;DHT22;11720;51.214;22.574;2023-07-31T06:53:26;20.10;99.90
23102;DHT22;11720;51.214;22.574;2023-07-31T06:55:51;20.00;99.90
23102;DHT22;11720;51.214;22.574;2023-07-31T06:58:17;20.00;99.90
23102;DHT22;11720;51.214;22.574;2023-07-31T07:03:09;20.20;99.90
23102;DHT22;11720;51.214;22.574;2023-07-31T07:08:01;21.00;99.90
23102;DHT22;11720;51.214;22.574;2023-07-31T07:12:53;21.00;99.90
23102;DHT22;11720;51.214;22.574;2023-07-31T07:22:39;20.90;99.90
23102;DHT22;11720;51.214;22.574;2023-07-31T07:27:38;21.00;99.90
23102;DHT22;11720;51.214;22.574;2023-07-31T07:30:06;21.40;99.90
23102;DHT22;11720;51.214;22.574;2023-07-31T07:34:58;21.40;99.90
23102;DHT22;11720;51.214;22.574;2023-07-31T07:39:50;21.90;99.90
23102;DHT22;11720;51.214;22.574;2023-07-31T07:47:08;21.80;99.90
23102;DHT22;11720;51.214;22.574;2023-07-31T07:49:34;21.80;99.90
23102;DHT22;11720;51.214;22.574;2023-07-31T07:52:01;21.80;99.90
23102;DHT22;11720;51.214;22.574;2023-07-31T08:01:45;21.90;99.90
23102;DHT22;11720;51.214;22.574;2023-07-31T08:06:44;21.80;99.90
23102;DHT22;11720;51.214;22.574;2023-07-31T08:11:41;21.90;99.90
23102;DHT22;11720;51.214;22.574;2023-07-31T08:14:07;21.90;99.90
23102;DHT22;11720;51.214;22.574;2023-07-31T08:16:43;22.30;99.90
23102;DHT22;11720;51.214;22.574;2023-07-31T08:19:17;22.30;99.90
23102;DHT22;11720;51.214;22.574;2023-07-31T08:29:10;22.30;99.90
23102;DHT22;11720;51.214;22.574;2023-07-31T08:31:39;22.50;99.90
23102;DHT22;11720;51.214;22.574;2023-07-31T08:34:05;22.40;99.90
23102;DHT22;11720;51.214;22.574;2023-07-31T08:38:59;22.50;99.90
23102;DHT22;11720;51.214;22.574;2023-07-31T08:43:55;22.80;99.90
23102;DHT22;11720;51.214;22.574;2023-07-31T08:46:22;23.40;99.90
23102;DHT22;11720;51.214;22.574;2023-07-31T08:48:54;22.80;99.90
23102;DHT22;11720;51.214;22.574;2023-07-31T08:51:30;23.20;99.90
23102;DHT22;11720;51.214;22.574;2023-07-31T08:53:56;23.50;99.90
23102;DHT22;11720;51.214;22.574;2023-07-31T08:56:23;23.30;99.90
23102;DHT22;11720;51.214;22.574;2023-07-31T08:58:53;23.10;99.90
23102;DHT22;11720;51.214;22.574;2023-07-31T09:03:49;23.00;99.90
23102;DHT22;11720;51.214;22.574;2023-07-31T09:06:51;23.30;99.90
23102;DHT22;11720;51.214;22.574;2023-07-31T09:12:03;23.40;99.90
23102;DHT22;11720;51.214;22.574;2023-07-31T09:16:57;23.70;99.80
23102;DHT22;11720;51.214;22.574;2023-07-31T09:19:35;21.10;99.90
23102;DHT22;11720;51.214;22.574;2023-07-31T09:22:04;23.90;98.30
23102;DHT22;11720;51.214;22.574;2023-07-31T09:24:31;24.00;97.10
23102;DHT22;11720;51.214;22.574;2023-07-31T09:26:59;24.30;97.80
23102;DHT22;11720;51.214;22.574;2023-07-31T09:29:27;24.20;98.90
23102;DHT22;11720;51.214;22.574;2023-07-31T09:31:54;22.90;99.00
23102;DHT22;11720;51.214;22.574;2023-07-31T09:36:48;23.50;99.90
23102;DHT22;11720;51.214;22.574;2023-07-31T09:39:15;23.70;99.90
23102;DHT22;11720;51.214;22.574;2023-07-31T09:41:48;23.60;99.90
23102;DHT22;11720;51.214;22.574;2023-07-31T09:46:45;23.50;99.90
23102;DHT22;11720;51.214;22.574;2023-07-31T09:51:42;23.20;99.90
23102;DHT22;11720;51.214;22.574;2023-07-31T09:54:12;23.20;99.90
23102;DHT22;11720;51.214;22.574;2023-07-31T09:56:46;23.20;99.90
23102;DHT22;11720;51.214;22.574;2023-07-31T09:59:16;22.40;99.90
23102;DHT22;11720;51.214;22.574;2023-07-31T10:01:43;22.30;99.90
23102;DHT22;11720;51.214;22.574;2023-07-31T10:04:12;22.50;99.90
23102;DHT22;11720;51.214;22.574;2023-07-31T10:06:40;22.80;99.90
23102;DHT22;11720;51.214;22.574;2023-07-31T10:09:07;22.80;99.90
23102;DHT22;11720;51.214;22.574;2023-07-31T10:11:38;23.00;99.90
23102;DHT22;11720;51.214;22.574;2023-07-31T10:14:05;23.20;99.90
23102;DHT22;11720;51.214;22.574;2023-07-31T10:16:32;23.30;99.90
23102;DHT22;11720;51.214;22.574;2023-07-31T10:21:27;23.20;99.20
23102;DHT22;11720;51.214;22.574;2023-07-31T10:26:20;23.00;98.50
23102;DHT22;11720;51.214;22.574;2023-07-31T10:31:14;23.00;99.00
23102;DHT22;11720;51.214;22.574;2023-07-31T10:36:14;23.00;99.70
23102;DHT22;11720;51.214;22.574;2023-07-31T10:41:10;23.10;99.90
23102;DHT22;11720;51.214;22.574;2023-07-31T10:43:37;23.20;99.90
23102;DHT22;11720;51.214;22.574;2023-07-31T10:46:07;23.20;99.90
23102;DHT22;11720;51.214;22.574;2023-07-31T10:48:37;23.40;99.90
23102;DHT22;11720;51.214;22.574;2023-07-31T10:51:12;23.60;98.90
23102;DHT22;11720;51.214;22.574;2023-07-31T10:53:40;23.80;98.10
23102;DHT22;11720;51.214;22.574;2023-07-31T10:56:08;24.10;97.60
23102;DHT22;11720;51.214;22.574;2023-07-31T10:58:36;24.30;96.40
23102;DHT22;11720;51.214;22.574;2023-07-31T11:01:05;24.30;96.30
23102;DHT22;11720;51.214;22.574;2023-07-31T11:03:50;24.20;97.00
23102;DHT22;11720;51.214;22.574;2023-07-31T11:08:49;24.50;95.60
23102;DHT22;11720;51.214;22.574;2023-07-31T11:11:17;24.70;94.00
23102;DHT22;11720;51.214;22.574;2023-07-31T11:13:46;25.00;95.30
23102;DHT22;11720;51.214;22.574;2023-07-31T11:18:44;24.80;92.50
23102;DHT22;11720;51.214;22.574;2023-07-31T11:21:18;25.00;93.70
23102;DHT22;11720;51.214;22.574;2023-07-31T11:23:56;25.00;93.80
23102;DHT22;11720;51.214;22.574;2023-07-31T11:26:23;23.60;92.40
23102;DHT22;11720;51.214;22.574;2023-07-31T11:28:50;25.30;92.10
23102;DHT22;11720;51.214;22.574;2023-07-31T11:31:19;25.40;89.60
23102;DHT22;11720;51.214;22.574;2023-07-31T11:34:04;25.40;90.20
23102;DHT22;11720;51.214;22.574;2023-07-31T11:36:32;25.60;87.30
23102;DHT22;11720;51.214;22.574;2023-07-31T11:39:05;25.70;83.70
23102;DHT22;11720;51.214;22.574;2023-07-31T11:44:01;25.30;83.40
23102;DHT22;11720;51.214;22.574;2023-07-31T11:46:30;25.20;90.20
23102;DHT22;11720;51.214;22.574;2023-07-31T11:49:01;25.20;90.30
23102;DHT22;11720;51.214;22.574;2023-07-31T11:51:28;25.00;84.40
23102;DHT22;11720;51.214;22.574;2023-07-31T11:53:59;25.10;85.50
23102;DHT22;11720;51.214;22.574;2023-07-31T11:56:28;25.20;82.20
23102;DHT22;11720;51.214;22.574;2023-07-31T11:58:59;25.20;84.60
23102;DHT22;11720;51.214;22.574;2023-07-31T12:01:26;25.40;83.20
23102;DHT22;11720;51.214;22.574;2023-07-31T12:03:53;25.60;83.30
23102;DHT22;11720;51.214;22.574;2023-07-31T12:06:19;25.60;85.50
23102;DHT22;11720;51.214;22.574;2023-07-31T12:18:37;25.00;84.90
23102;DHT22;11720;51.214;22.574;2023-07-31T12:21:06;25.00;83.90
23102;DHT22;11720;51.214;22.574;2023-07-31T12:23:32;25.00;85.50
23102;DHT22;11720;51.214;22.574;2023-07-31T12:26:12;25.40;86.40
23102;DHT22;11720;51.214;22.574;2023-07-31T12:28:42;25.10;85.40
23102;DHT22;11720;51.214;22.574;2023-07-31T12:31:21;25.20;86.90
23102;DHT22;11720;51.214;22.574;2023-07-31T12:33:51;25.30;81.40
23102;DHT22;11720;51.214;22.574;2023-07-31T12:36:22;25.30;80.20
23102;DHT22;11720;51.214;22.574;2023-07-31T12:41:22;25.40;82.50
23102;DHT22;11720;51.214;22.574;2023-07-31T12:48:40;25.10;82.00
23102;DHT22;11720;51.214;22.574;2023-07-31T13:30:04;25.00;80.30
23102;DHT22;11720;51.214;22.574;2023-07-31T13:39:53;24.70;81.00
23102;DHT22;11720;51.214;22.574;2023-07-31T13:47:14;25.30;76.30
23102;DHT22;11720;51.214;22.574;2023-07-31T13:49:40;25.40;82.90
23102;DHT22;11720;51.214;22.574;2023-07-31T14:09:13;25.60;74.70
23102;DHT22;11720;51.214;22.574;2023-07-31T14:11:40;25.50;77.70
23102;DHT22;11720;51.214;22.574;2023-07-31T14:16:32;25.70;75.30
23102;DHT22;11720;51.214;22.574;2023-07-31T14:18:57;25.70;79.90
23102;DHT22;11720;51.214;22.574;2023-07-31T14:21:25;25.70;72.90
23102;DHT22;11720;51.214;22.574;2023-07-31T14:23:51;25.70;73.80
23102;DHT22;11720;51.214;22.574;2023-07-31T14:26:17;25.80;76.20
23102;DHT22;11720;51.214;22.574;2023-07-31T14:28:43;25.60;74.30
23102;DHT22;11720;51.214;22.574;2023-07-31T14:33:35;25.40;69.80
23102;DHT22;11720;51.214;22.574;2023-07-31T14:36:01;24.40;71.10
23102;DHT22;11720;51.214;22.574;2023-07-31T14:38:27;25.00;75.70
23102;DHT22;11720;51.214;22.574;2023-07-31T14:40:52;25.10;75.30
23102;DHT22;11720;51.214;22.574;2023-07-31T14:48:12;24.70;71.60
23102;DHT22;11720;51.214;22.574;2023-07-31T14:50:37;24.60;70.70
23102;DHT22;11720;51.214;22.574;2023-07-31T14:53:03;24.60;71.80
23102;DHT22;11720;51.214;22.574;2023-07-31T14:57:55;25.10;69.10
23102;DHT22;11720;51.214;22.574;2023-07-31T15:10:06;25.80;64.00
23102;DHT22;11720;51.214;22.574;2023-07-31T15:19:51;25.50;65.10
23102;DHT22;11720;51.214;22.574;2023-07-31T15:32:05;25.00;67.30
23102;DHT22;11720;51.214;22.574;2023-07-31T15:49:10;25.40;67.00
23102;DHT22;11720;51.214;22.574;2023-07-31T15:54:01;25.60;65.20
23102;DHT22;11720;51.214;22.574;2023-07-31T15:58:53;25.60;64.20
23102;DHT22;11720;51.214;22.574;2023-07-31T16:03:49;26.00;63.60
23102;DHT22;11720;51.214;22.574;2023-07-31T16:08:41;26.20;63.70
23102;DHT22;11720;51.214;22.574;2023-07-31T16:11:10;26.20;65.40
23102;DHT22;11720;51.214;22.574;2023-07-31T16:28:12;25.80;65.40
23102;DHT22;11720;51.214;22.574;2023-07-31T16:30:38;25.60;65.40
23102;DHT22;11720;51.214;22.574;2023-07-31T16:33:04;25.40;65.80
23102;DHT22;11720;51.214;22.574;2023-07-31T16:37:55;25.00;65.20
23102;DHT22;11720;51.214;22.574;2023-07-31T16:40:21;24.90;66.60
23102;DHT22;11720;51.214;22.574;2023-07-31T16:42:47;24.70;66.70
23102;DHT22;11720;51.214;22.574;2023-07-31T16:45:13;24.50;66.20
23102;DHT22;11720;51.214;22.574;2023-07-31T16:47:39;24.40;68.30
23102;DHT22;11720;51.214;22.574;2023-07-31T16:50:04;24.30;66.60
23102;DHT22;11720;51.214;22.574;2023-07-31T16:52:30;24.20;67.40
23102;DHT22;11720;51.214;22.574;2023-07-31T16:54:56;24.00;67.70
23102;DHT22;11720;51.214;22.574;2023-07-31T16:57:21;23.90;67.50
23102;DHT22;11720;51.214;22.574;2023-07-31T16:59:50;23.80;67.60
23102;DHT22;11720;51.214;22.574;2023-07-31T17:02:15;23.70;68.30
23102;DHT22;11720;51.214;22.574;2023-07-31T17:04:41;23.60;71.10
23102;DHT22;11720;51.214;22.574;2023-07-31T17:07:07;23.60;69.60
23102;DHT22;11720;51.214;22.574;2023-07-31T17:09:32;23.50;70.00
23102;DHT22;11720;51.214;22.574;2023-07-31T17:11:59;23.40;71.90
23102;DHT22;11720;51.214;22.574;2023-07-31T17:14:25;23.40;71.90
23102;DHT22;11720;51.214;22.574;2023-07-31T17:19:16;23.20;73.30
23102;DHT22;11720;51.214;22.574;2023-07-31T17:21:42;23.30;81.40
23102;DHT22;11720;51.214;22.574;2023-07-31T17:24:08;23.10;80.30
23102;DHT22;11720;51.214;22.574;2023-07-31T17:28:59;22.80;77.70
23102;DHT22;11720;51.214;22.574;2023-07-31T17:31:25;22.80;79.20
23102;DHT22;11720;51.214;22.574;2023-07-31T17:33:52;22.70;81.80
23102;DHT22;11720;51.214;22.574;2023-07-31T17:36:18;22.60;83.10
23102;DHT22;11720;51.214;22.574;2023-07-31T17:38:43;22.70;83.10
23102;DHT22;11720;51.214;22.574;2023-07-31T17:41:09;22.40;83.90
23102;DHT22;11720;51.214;22.574;2023-07-31T17:43:35;22.40;84.60
23102;DHT22;11720;51.214;22.574;2023-07-31T17:46:02;22.30;84.50
23102;DHT22;11720;51.214;22.574;2023-07-31T17:48:28;22.20;86.20
23102;DHT22;11720;51.214;22.574;2023-07-31T17:50:53;22.20;87.10
23102;DHT22;11720;51.214;22.574;2023-07-31T17:53:20;22.10;89.00
23102;DHT22;11720;51.214;22.574;2023-07-31T17:55:46;22.10;89.70
23102;DHT22;11720;51.214;22.574;2023-07-31T17:58:12;22.10;90.30
23102;DHT22;11720;51.214;22.574;2023-07-31T18:00:39;22.00;90.50
23102;DHT22;11720;51.214;22.574;2023-07-31T18:03:05;22.00;91.80
23102;DHT22;11720;51.214;22.574;2023-07-31T18:05:36;21.90;91.00
23102;DHT22;11720;51.214;22.574;2023-07-31T18:08:02;22.00;91.60
23102;DHT22;11720;51.214;22.574;2023-07-31T18:10:27;21.80;91.50
23102;DHT22;11720;51.214;22.574;2023-07-31T18:12:55;21.80;91.60
23102;DHT22;11720;51.214;22.574;2023-07-31T18:15:20;21.70;91.70
23102;DHT22;11720;51.214;22.574;2023-07-31T18:17:46;21.60;91.90
23102;DHT22;11720;51.214;22.574;2023-07-31T18:20:12;21.60;92.50
23102;DHT22;11720;51.214;22.574;2023-07-31T18:25:05;21.50;93.80
23102;DHT22;11720;51.214;22.574;2023-07-31T18:29:56;21.30;93.90
23102;DHT22;11720;51.214;22.574;2023-07-31T18:32:22;21.20;94.80
23102;DHT22;11720;51.214;22.574;2023-07-31T18:34:48;21.20;95.70
23102;DHT22;11720;51.214;22.574;2023-07-31T18:39:39;21.00;96.30
23102;DHT22;11720;51.214;22.574;2023-07-31T18:42:05;20.90;96.90
23102;DHT22;11720;51.214;22.574;2023-07-31T18:44:32;20.90;98.20
23102;DHT22;11720;51.214;22.574;2023-07-31T18:46:57;20.80;99.80
23102;DHT22;11720;51.214;22.574;2023-07-31T18:49:23;20.70;99.90
23102;DHT22;11720;51.214;22.574;2023-07-31T18:51:48;20.60;99.90
23102;DHT22;11720;51.214;22.574;2023-07-31T18:54:14;20.50;99.90
23102;DHT22;11720;51.214;22.574;2023-07-31T18:56:40;20.40;99.90
23102;DHT22;11720;51.214;22.574;2023-07-31T18:59:05;20.30;99.90
23102;DHT22;11720;51.214;22.574;2023-07-31T19:01:31;20.30;99.90
23102;DHT22;11720;51.214;22.574;2023-07-31T19:03:57;20.20;99.90
23102;DHT22;11720;51.214;22.574;2023-07-31T19:06:24;20.10;99.90
23102;DHT22;11720;51.214;22.574;2023-07-31T19:08:51;20.10;99.90
23102;DHT22;11720;51.214;22.574;2023-07-31T19:11:17;20.00;99.90
23102;DHT22;11720;51.214;22.574;2023-07-31T19:13:42;19.90;99.90
23102;DHT22;11720;51.214;22.574;2023-07-31T19:16:10;19.90;99.90
23102;DHT22;11720;51.214;22.574;2023-07-31T19:18:36;19.80;99.90
23102;DHT22;11720;51.214;22.574;2023-07-31T19:21:01;19.80;99.90
23102;DHT22;11720;51.214;22.574;2023-07-31T19:23:27;19.80;99.90
23102;DHT22;11720;51.214;22.574;2023-07-31T19:25:53;19.70;99.90
23102;DHT22;11720;51.214;22.574;2023-07-31T19:28:18;19.70;99.90
23102;DHT22;11720;51.214;22.574;2023-07-31T19:30:44;19.70;99.90
23102;DHT22;11720;51.214;22.574;2023-07-31T19:33:10;19.60;99.90
23102;DHT22;11720;51.214;22.574;2023-07-31T19:35:36;19.50;99.90
23102;DHT22;11720;51.214;22.574;2023-07-31T19:38:01;19.50;99.90
23102;DHT22;11720;51.214;22.574;2023-07-31T19:40:27;19.40;99.90
23102;DHT22;11720;51.214;22.574;2023-07-31T19:42:53;19.40;99.90
23102;DHT22;11720;51.214;22.574;2023-07-31T19:45:20;19.30;99.90
23102;DHT22;11720;51.214;22.574;2023-07-31T19:47:45;19.20;99.90
23102;DHT22;11720;51.214;22.574;2023-07-31T19:50:11;19.20;99.90
23102;DHT22;11720;51.214;22.574;2023-07-31T19:52:37;19.10;99.90
23102;DHT22;11720;51.214;22.574;2023-07-31T19:55:03;19.10;99.90
23102;DHT22;11720;51.214;22.574;2023-07-31T19:57:29;19.10;99.90
23102;DHT22;11720;51.214;22.574;2023-07-31T19:59:54;19.00;99.90
23102;DHT22;11720;51.214;22.574;2023-07-31T20:02:20;19.00;99.90
23102;DHT22;11720;51.214;22.574;2023-07-31T20:04:46;18.90;99.90
23102;DHT22;11720;51.214;22.574;2023-07-31T20:07:11;18.90;99.90
23102;DHT22;11720;51.214;22.574;2023-07-31T20:09:37;18.90;99.90
23102;DHT22;11720;51.214;22.574;2023-07-31T20:12:03;18.90;99.90
23102;DHT22;11720;51.214;22.574;2023-07-31T20:14:29;18.90;99.90
23102;DHT22;11720;51.214;22.574;2023-07-31T20:16:54;18.90;99.90
23102;DHT22;11720;51.214;22.574;2023-07-31T20:19:21;18.80;99.90
23102;DHT22;11720;51.214;22.574;2023-07-31T20:21:46;18.80;99.90
23102;DHT22;11720;51.214;22.574;2023-07-31T20:24:12;18.80;99.90
23102;DHT22;11720;51.214;22.574;2023-07-31T20:26:38;18.80;99.90
23102;DHT22;11720;51.214;22.574;2023-07-31T20:29:04;18.50;99.90